首页
METAR-TAF:

METAR-TAF

机场 :

Punta Cana, 多米尼加共和国

纬度: 18-34N, 经度: 068-22W, 海拔: 12米

当前天气观测

该预报发布于58分钟前的08:00 UTC
风速4节,风向南转南东
温度 28°C
湿度 79%
气压 1014 hPa
能见度10公里或以上
少量云层高于1800英尺

METAR: MDPC 160800Z 15004KT 9999 FEW018 28/24 Q1014

时间: 04:58 (08:58 UTC)

预报

该预报发布于4小时和58分钟前的04:00 UTC
预报有效从16日的 06点(UTC)到 17日的 06点(UTC)
风速4节,风向东转东南
能见度10公里或以上
少量云层高于1800英尺
成为
从 16日的 05点(UTC)到 07日的 点(UTC)
风速节,风向

TAF: MDPC 160400Z 1606/1706 12004KT 9999 FEW018 BECMG 1605/07 00000KT

超过4000个机场的气象观测和天气预报(METAR&TAF报告)。

可查询的气象台以黄色和红色小点在地图上表示。

将鼠标移到小点上方,可查看气象台名称。

然后点击查看天气观测和预报。

如需切换地图:点击带黑十字的绿色按钮放大地图;点击带横线的绿色按钮缩小地图;或者点击绿色箭头查看邻近地区的地图。


METAR-TAF: